sensor_id;sensor_type;location;lat;lon;timestamp;P1;durP1;ratioP1;P2;durP2;ratioP2
74612;SDS011;63119;51.788;8.824;2023-12-20T00:00:34;18.10;;;8.57;;
74612;SDS011;63119;51.788;8.824;2023-12-20T00:02:59;17.42;;;8.15;;
74612;SDS011;63119;51.788;8.824;2023-12-20T00:05:25;18.83;;;8.53;;
74612;SDS011;63119;51.788;8.824;2023-12-20T00:07:50;17.60;;;8.90;;
74612;SDS011;63119;51.788;8.824;2023-12-20T00:10:15;17.73;;;8.00;;
74612;SDS011;63119;51.788;8.824;2023-12-20T00:12:40;17.40;;;8.53;;
74612;SDS011;63119;51.788;8.824;2023-12-20T00:15:06;20.03;;;7.60;;
74612;SDS011;63119;51.788;8.824;2023-12-20T00:17:31;16.63;;;7.57;;
74612;SDS011;63119;51.788;8.824;2023-12-20T00:19:57;16.30;;;7.20;;
74612;SDS011;63119;51.788;8.824;2023-12-20T00:22:22;14.67;;;6.57;;
74612;SDS011;63119;51.788;8.824;2023-12-20T00:24:47;15.03;;;7.27;;
74612;SDS011;63119;51.788;8.824;2023-12-20T00:27:12;13.63;;;6.97;;
74612;SDS011;63119;51.788;8.824;2023-12-20T00:29:37;13.30;;;6.17;;
74612;SDS011;63119;51.788;8.824;2023-12-20T00:32:03;16.47;;;8.27;;
74612;SDS011;63119;51.788;8.824;2023-12-20T00:34:29;13.57;;;6.53;;
74612;SDS011;63119;51.788;8.824;2023-12-20T00:36:54;15.27;;;6.87;;
74612;SDS011;63119;51.788;8.824;2023-12-20T00:39:19;14.43;;;6.87;;
74612;SDS011;63119;51.788;8.824;2023-12-20T00:41:45;14.43;;;6.93;;
74612;SDS011;63119;51.788;8.824;2023-12-20T00:44:10;12.17;;;6.20;;
74612;SDS011;63119;51.788;8.824;2023-12-20T00:46:35;14.50;;;6.40;;
74612;SDS011;63119;51.788;8.824;2023-12-20T00:49:00;12.80;;;6.57;;
74612;SDS011;63119;51.788;8.824;2023-12-20T00:51:26;10.63;;;6.20;;
74612;SDS011;63119;51.788;8.824;2023-12-20T00:53:51;16.40;;;6.83;;
74612;SDS011;63119;51.788;8.824;2023-12-20T00:56:19;11.52;;;5.43;;
74612;SDS011;63119;51.788;8.824;2023-12-20T00:58:45;9.43;;;4.97;;
74612;SDS011;63119;51.788;8.824;2023-12-20T01:01:10;9.73;;;5.40;;
74612;SDS011;63119;51.788;8.824;2023-12-20T01:03:35;11.50;;;4.40;;
74612;SDS011;63119;51.788;8.824;2023-12-20T01:06:01;11.77;;;4.10;;
74612;SDS011;63119;51.788;8.824;2023-12-20T01:08:26;9.67;;;4.30;;
74612;SDS011;63119;51.788;8.824;2023-12-20T01:10:51;10.63;;;4.40;;
74612;SDS011;63119;51.788;8.824;2023-12-20T01:13:17;8.05;;;3.90;;
74612;SDS011;63119;51.788;8.824;2023-12-20T01:15:42;6.83;;;3.40;;
74612;SDS011;63119;51.788;8.824;2023-12-20T01:18:07;8.57;;;3.97;;
74612;SDS011;63119;51.788;8.824;2023-12-20T01:20:32;9.73;;;4.33;;
74612;SDS011;63119;51.788;8.824;2023-12-20T01:22:58;6.97;;;3.70;;
74612;SDS011;63119;51.788;8.824;2023-12-20T01:25:23;8.33;;;3.63;;
74612;SDS011;63119;51.788;8.824;2023-12-20T01:27:48;6.83;;;3.47;;
74612;SDS011;63119;51.788;8.824;2023-12-20T01:30:14;10.20;;;3.77;;
74612;SDS011;63119;51.788;8.824;2023-12-20T01:32:39;7.97;;;3.60;;
74612;SDS011;63119;51.788;8.824;2023-12-20T01:35:05;9.05;;;4.20;;
74612;SDS011;63119;51.788;8.824;2023-12-20T01:37:30;6.70;;;3.17;;
74612;SDS011;63119;51.788;8.824;2023-12-20T01:39:56;7.65;;;3.35;;
74612;SDS011;63119;51.788;8.824;2023-12-20T01:42:21;6.17;;;3.03;;
74612;SDS011;63119;51.788;8.824;2023-12-20T01:44:47;6.22;;;2.78;;
74612;SDS011;63119;51.788;8.824;2023-12-20T01:47:12;7.65;;;3.65;;
74612;SDS011;63119;51.788;8.824;2023-12-20T01:49:38;7.25;;;3.28;;
74612;SDS011;63119;51.788;8.824;2023-12-20T01:52:04;9.45;;;3.40;;
74612;SDS011;63119;51.788;8.824;2023-12-20T01:54:29;7.07;;;3.42;;
74612;SDS011;63119;51.788;8.824;2023-12-20T01:56:55;7.47;;;3.25;;
74612;SDS011;63119;51.788;8.824;2023-12-20T01:59:21;8.63;;;3.33;;
74612;SDS011;63119;51.788;8.824;2023-12-20T02:01:46;7.32;;;2.95;;
74612;SDS011;63119;51.788;8.824;2023-12-20T02:04:12;10.45;;;3.47;;
74612;SDS011;63119;51.788;8.824;2023-12-20T02:06:37;9.13;;;3.85;;
74612;SDS011;63119;51.788;8.824;2023-12-20T02:09:05;10.43;;;3.30;;
74612;SDS011;63119;51.788;8.824;2023-12-20T02:11:30;7.82;;;3.35;;
74612;SDS011;63119;51.788;8.824;2023-12-20T02:13:56;7.75;;;3.35;;
74612;SDS011;63119;51.788;8.824;2023-12-20T02:16:21;6.17;;;2.57;;
74612;SDS011;63119;51.788;8.824;2023-12-20T02:18:47;13.68;;;3.15;;
74612;SDS011;63119;51.788;8.824;2023-12-20T02:21:12;10.87;;;3.83;;
74612;SDS011;63119;51.788;8.824;2023-12-20T02:23:37;8.87;;;3.17;;
74612;SDS011;63119;51.788;8.824;2023-12-20T02:26:03;8.40;;;2.83;;
74612;SDS011;63119;51.788;8.824;2023-12-20T02:28:29;10.63;;;3.53;;
74612;SDS011;63119;51.788;8.824;2023-12-20T02:30:55;7.68;;;2.50;;
74612;SDS011;63119;51.788;8.824;2023-12-20T02:33:20;8.10;;;3.60;;
74612;SDS011;63119;51.788;8.824;2023-12-20T02:35:46;5.93;;;2.80;;
74612;SDS011;63119;51.788;8.824;2023-12-20T02:38:12;10.20;;;3.72;;
74612;SDS011;63119;51.788;8.824;2023-12-20T02:40:37;9.20;;;2.97;;
74612;SDS011;63119;51.788;8.824;2023-12-20T02:43:02;5.60;;;2.80;;
74612;SDS011;63119;51.788;8.824;2023-12-20T02:45:28;10.25;;;2.83;;
74612;SDS011;63119;51.788;8.824;2023-12-20T02:47:53;9.10;;;2.43;;
74612;SDS011;63119;51.788;8.824;2023-12-20T02:50:18;7.63;;;2.43;;
74612;SDS011;63119;51.788;8.824;2023-12-20T02:52:46;6.43;;;2.53;;
74612;SDS011;63119;51.788;8.824;2023-12-20T02:55:12;9.35;;;2.78;;
74612;SDS011;63119;51.788;8.824;2023-12-20T02:57:37;12.53;;;2.73;;
74612;SDS011;63119;51.788;8.824;2023-12-20T03:00:06;7.38;;;2.92;;
74612;SDS011;63119;51.788;8.824;2023-12-20T03:02:34;7.60;;;2.70;;
74612;SDS011;63119;51.788;8.824;2023-12-20T03:04:59;9.60;;;2.60;;
74612;SDS011;63119;51.788;8.824;2023-12-20T03:07:25;7.68;;;2.33;;
74612;SDS011;63119;51.788;8.824;2023-12-20T03:09:50;6.53;;;2.63;;
74612;SDS011;63119;51.788;8.824;2023-12-20T03:12:15;9.10;;;2.77;;
74612;SDS011;63119;51.788;8.824;2023-12-20T03:14:41;9.63;;;3.20;;
74612;SDS011;63119;51.788;8.824;2023-12-20T03:17:06;12.73;;;3.23;;
74612;SDS011;63119;51.788;8.824;2023-12-20T03:19:31;8.73;;;2.97;;
74612;SDS011;63119;51.788;8.824;2023-12-20T03:21:56;9.43;;;3.20;;
74612;SDS011;63119;51.788;8.824;2023-12-20T03:24:21;10.10;;;3.13;;
74612;SDS011;63119;51.788;8.824;2023-12-20T03:26:47;8.47;;;3.23;;
74612;SDS011;63119;51.788;8.824;2023-12-20T03:29:12;14.67;;;3.63;;
74612;SDS011;63119;51.788;8.824;2023-12-20T03:31:37;7.47;;;3.37;;
74612;SDS011;63119;51.788;8.824;2023-12-20T03:34:02;11.43;;;4.03;;
74612;SDS011;63119;51.788;8.824;2023-12-20T03:36:28;13.70;;;3.20;;
74612;SDS011;63119;51.788;8.824;2023-12-20T03:38:53;11.30;;;4.17;;
74612;SDS011;63119;51.788;8.824;2023-12-20T03:41:18;12.03;;;4.10;;
74612;SDS011;63119;51.788;8.824;2023-12-20T03:43:43;10.30;;;4.67;;
74612;SDS011;63119;51.788;8.824;2023-12-20T03:46:09;10.57;;;3.80;;
74612;SDS011;63119;51.788;8.824;2023-12-20T03:48:34;9.87;;;3.80;;
74612;SDS011;63119;51.788;8.824;2023-12-20T03:50:59;12.07;;;4.50;;
74612;SDS011;63119;51.788;8.824;2023-12-20T03:53:24;12.13;;;4.17;;
74612;SDS011;63119;51.788;8.824;2023-12-20T03:55:49;14.17;;;4.73;;
74612;SDS011;63119;51.788;8.824;2023-12-20T03:58:15;9.60;;;4.10;;
74612;SDS011;63119;51.788;8.824;2023-12-20T04:00:40;9.13;;;4.27;;
74612;SDS011;63119;51.788;8.824;2023-12-20T04:03:05;13.07;;;4.70;;
74612;SDS011;63119;51.788;8.824;2023-12-20T04:05:30;15.90;;;4.73;;
74612;SDS011;63119;51.788;8.824;2023-12-20T04:07:56;9.63;;;4.20;;
74612;SDS011;63119;51.788;8.824;2023-12-20T04:10:21;13.47;;;4.60;;
74612;SDS011;63119;51.788;8.824;2023-12-20T04:12:46;9.33;;;4.67;;
74612;SDS011;63119;51.788;8.824;2023-12-20T04:15:11;11.47;;;5.33;;
74612;SDS011;63119;51.788;8.824;2023-12-20T04:17:37;12.17;;;4.60;;
74612;SDS011;63119;51.788;8.824;2023-12-20T04:20:02;12.85;;;4.80;;
74612;SDS011;63119;51.788;8.824;2023-12-20T04:22:28;10.93;;;4.88;;
74612;SDS011;63119;51.788;8.824;2023-12-20T04:24:53;12.87;;;5.50;;
74612;SDS011;63119;51.788;8.824;2023-12-20T04:27:18;17.67;;;5.07;;
74612;SDS011;63119;51.788;8.824;2023-12-20T04:29:44;12.80;;;5.00;;
74612;SDS011;63119;51.788;8.824;2023-12-20T04:32:09;15.20;;;4.67;;
74612;SDS011;63119;51.788;8.824;2023-12-20T04:34:34;12.37;;;4.33;;
74612;SDS011;63119;51.788;8.824;2023-12-20T04:36:59;16.00;;;5.23;;
74612;SDS011;63119;51.788;8.824;2023-12-20T04:39:26;11.57;;;4.20;;
74612;SDS011;63119;51.788;8.824;2023-12-20T04:41:51;13.23;;;5.07;;
74612;SDS011;63119;51.788;8.824;2023-12-20T04:44:17;17.03;;;4.33;;
74612;SDS011;63119;51.788;8.824;2023-12-20T04:46:42;14.73;;;4.40;;
74612;SDS011;63119;51.788;8.824;2023-12-20T04:49:07;13.90;;;4.33;;
74612;SDS011;63119;51.788;8.824;2023-12-20T04:51:33;8.70;;;3.90;;
74612;SDS011;63119;51.788;8.824;2023-12-20T04:53:59;12.52;;;4.15;;
74612;SDS011;63119;51.788;8.824;2023-12-20T04:56:24;6.07;;;3.43;;
74612;SDS011;63119;51.788;8.824;2023-12-20T04:58:49;11.07;;;3.47;;
74612;SDS011;63119;51.788;8.824;2023-12-20T05:01:14;9.13;;;3.53;;
74612;SDS011;63119;51.788;8.824;2023-12-20T05:03:40;13.33;;;3.37;;
74612;SDS011;63119;51.788;8.824;2023-12-20T05:06:05;13.60;;;3.47;;
74612;SDS011;63119;51.788;8.824;2023-12-20T05:08:30;13.40;;;3.47;;
74612;SDS011;63119;51.788;8.824;2023-12-20T05:10:56;13.37;;;2.90;;
74612;SDS011;63119;51.788;8.824;2023-12-20T05:13:21;9.05;;;3.17;;
74612;SDS011;63119;51.788;8.824;2023-12-20T05:15:46;8.43;;;2.63;;
74612;SDS011;63119;51.788;8.824;2023-12-20T05:18:12;7.87;;;2.90;;
74612;SDS011;63119;51.788;8.824;2023-12-20T05:20:37;8.43;;;3.35;;
74612;SDS011;63119;51.788;8.824;2023-12-20T05:23:03;12.77;;;2.70;;
74612;SDS011;63119;51.788;8.824;2023-12-20T05:25:28;14.13;;;4.00;;
74612;SDS011;63119;51.788;8.824;2023-12-20T05:27:53;11.93;;;3.73;;
74612;SDS011;63119;51.788;8.824;2023-12-20T05:30:19;8.13;;;3.10;;
74612;SDS011;63119;51.788;8.824;2023-12-20T05:32:44;15.33;;;3.67;;
74612;SDS011;63119;51.788;8.824;2023-12-20T05:35:09;10.83;;;3.27;;
74612;SDS011;63119;51.788;8.824;2023-12-20T05:37:34;9.10;;;3.70;;
74612;SDS011;63119;51.788;8.824;2023-12-20T05:40:00;14.77;;;4.07;;
74612;SDS011;63119;51.788;8.824;2023-12-20T05:42:25;15.13;;;3.77;;
74612;SDS011;63119;51.788;8.824;2023-12-20T05:44:50;13.50;;;3.73;;
74612;SDS011;63119;51.788;8.824;2023-12-20T05:47:15;8.07;;;3.80;;
74612;SDS011;63119;51.788;8.824;2023-12-20T05:49:41;11.90;;;4.40;;
74612;SDS011;63119;51.788;8.824;2023-12-20T05:52:06;11.23;;;3.93;;
74612;SDS011;63119;51.788;8.824;2023-12-20T05:54:31;15.37;;;4.90;;
74612;SDS011;63119;51.788;8.824;2023-12-20T05:56:56;11.00;;;4.23;;
74612;SDS011;63119;51.788;8.824;2023-12-20T05:59:22;12.27;;;4.07;;
74612;SDS011;63119;51.788;8.824;2023-12-20T06:01:47;10.30;;;4.80;;
74612;SDS011;63119;51.788;8.824;2023-12-20T06:04:12;12.43;;;5.20;;
74612;SDS011;63119;51.788;8.824;2023-12-20T06:06:41;14.50;;;4.57;;
74612;SDS011;63119;51.788;8.824;2023-12-20T06:09:07;12.57;;;5.00;;
74612;SDS011;63119;51.788;8.824;2023-12-20T06:11:32;20.17;;;4.87;;
74612;SDS011;63119;51.788;8.824;2023-12-20T06:13:57;14.87;;;5.30;;
74612;SDS011;63119;51.788;8.824;2023-12-20T06:16:23;9.77;;;5.00;;
74612;SDS011;63119;51.788;8.824;2023-12-20T06:18:48;11.33;;;4.80;;
74612;SDS011;63119;51.788;8.824;2023-12-20T06:21:13;15.90;;;5.43;;
74612;SDS011;63119;51.788;8.824;2023-12-20T06:23:39;12.18;;;5.20;;
74612;SDS011;63119;51.788;8.824;2023-12-20T06:26:04;12.23;;;5.43;;
74612;SDS011;63119;51.788;8.824;2023-12-20T06:28:29;16.93;;;5.50;;
74612;SDS011;63119;51.788;8.824;2023-12-20T06:30:55;16.70;;;5.70;;
74612;SDS011;63119;51.788;8.824;2023-12-20T06:33:21;12.93;;;6.10;;
74612;SDS011;63119;51.788;8.824;2023-12-20T06:35:47;17.13;;;6.03;;
74612;SDS011;63119;51.788;8.824;2023-12-20T06:38:12;19.20;;;6.03;;
74612;SDS011;63119;51.788;8.824;2023-12-20T06:40:38;20.47;;;6.27;;
74612;SDS011;63119;51.788;8.824;2023-12-20T06:43:03;16.57;;;5.93;;
74612;SDS011;63119;51.788;8.824;2023-12-20T06:45:28;17.57;;;5.80;;
74612;SDS011;63119;51.788;8.824;2023-12-20T06:47:53;13.93;;;5.63;;
74612;SDS011;63119;51.788;8.824;2023-12-20T06:50:19;15.05;;;6.97;;
74612;SDS011;63119;51.788;8.824;2023-12-20T06:52:45;13.02;;;5.95;;
74612;SDS011;63119;51.788;8.824;2023-12-20T06:55:10;14.57;;;8.17;;
74612;SDS011;63119;51.788;8.824;2023-12-20T06:57:35;21.67;;;7.87;;
74612;SDS011;63119;51.788;8.824;2023-12-20T07:00:01;26.35;;;7.72;;
74612;SDS011;63119;51.788;8.824;2023-12-20T07:02:27;21.23;;;8.52;;
74612;SDS011;63119;51.788;8.824;2023-12-20T07:04:55;18.15;;;8.18;;
74612;SDS011;63119;51.788;8.824;2023-12-20T07:07:20;18.07;;;7.43;;
74612;SDS011;63119;51.788;8.824;2023-12-20T07:09:46;21.60;;;7.87;;
74612;SDS011;63119;51.788;8.824;2023-12-20T07:12:11;25.60;;;7.60;;
74612;SDS011;63119;51.788;8.824;2023-12-20T07:14:36;17.70;;;7.50;;
74612;SDS011;63119;51.788;8.824;2023-12-20T07:17:01;17.77;;;8.10;;
74612;SDS011;63119;51.788;8.824;2023-12-20T07:19:27;30.77;;;9.23;;
74612;SDS011;63119;51.788;8.824;2023-12-20T07:21:53;19.30;;;7.43;;
74612;SDS011;63119;51.788;8.824;2023-12-20T07:24:18;16.00;;;6.70;;
74612;SDS011;63119;51.788;8.824;2023-12-20T07:26:43;20.50;;;7.30;;
74612;SDS011;63119;51.788;8.824;2023-12-20T07:29:08;22.80;;;7.50;;
74612;SDS011;63119;51.788;8.824;2023-12-20T07:31:34;22.60;;;7.87;;
74612;SDS011;63119;51.788;8.824;2023-12-20T07:33:59;14.05;;;6.82;;
74612;SDS011;63119;51.788;8.824;2023-12-20T07:36:25;25.23;;;7.67;;
74612;SDS011;63119;51.788;8.824;2023-12-20T07:38:50;17.73;;;7.00;;
74612;SDS011;63119;51.788;8.824;2023-12-20T07:41:15;19.70;;;7.30;;
74612;SDS011;63119;51.788;8.824;2023-12-20T07:43:41;18.93;;;7.83;;
74612;SDS011;63119;51.788;8.824;2023-12-20T07:46:06;18.52;;;8.63;;
74612;SDS011;63119;51.788;8.824;2023-12-20T07:48:36;19.95;;;8.38;;
74612;SDS011;63119;51.788;8.824;2023-12-20T07:51:17;17.23;;;6.90;;
74612;SDS011;63119;51.788;8.824;2023-12-20T07:53:42;27.30;;;7.45;;
74612;SDS011;63119;51.788;8.824;2023-12-20T07:56:16;20.63;;;6.78;;
74612;SDS011;63119;51.788;8.824;2023-12-20T07:58:43;17.42;;;7.30;;
74612;SDS011;63119;51.788;8.824;2023-12-20T08:01:09;18.42;;;6.90;;
74612;SDS011;63119;51.788;8.824;2023-12-20T08:03:34;19.48;;;7.50;;
74612;SDS011;63119;51.788;8.824;2023-12-20T08:06:00;15.25;;;6.68;;
74612;SDS011;63119;51.788;8.824;2023-12-20T08:08:25;23.48;;;7.15;;
74612;SDS011;63119;51.788;8.824;2023-12-20T08:10:50;16.83;;;7.07;;
74612;SDS011;63119;51.788;8.824;2023-12-20T08:13:16;17.67;;;6.63;;
74612;SDS011;63119;51.788;8.824;2023-12-20T08:20:44;13.10;;;6.20;;
74612;SDS011;63119;51.788;8.824;2023-12-20T08:23:09;21.53;;;6.93;;
74612;SDS011;63119;51.788;8.824;2023-12-20T08:25:34;17.48;;;7.45;;
74612;SDS011;63119;51.788;8.824;2023-12-20T08:28:01;16.37;;;6.13;;
74612;SDS011;63119;51.788;8.824;2023-12-20T08:30:27;14.43;;;5.57;;
74612;SDS011;63119;51.788;8.824;2023-12-20T08:32:52;20.60;;;7.37;;
74612;SDS011;63119;51.788;8.824;2023-12-20T08:35:17;20.07;;;6.73;;
74612;SDS011;63119;51.788;8.824;2023-12-20T08:37:43;14.18;;;5.63;;
74612;SDS011;63119;51.788;8.824;2023-12-20T08:40:09;18.10;;;6.57;;
74612;SDS011;63119;51.788;8.824;2023-12-20T08:42:34;17.02;;;6.32;;
74612;SDS011;63119;51.788;8.824;2023-12-20T08:45:00;17.50;;;6.57;;
74612;SDS011;63119;51.788;8.824;2023-12-20T08:47:25;19.70;;;6.43;;
74612;SDS011;63119;51.788;8.824;2023-12-20T08:49:50;16.67;;;6.33;;
74612;SDS011;63119;51.788;8.824;2023-12-20T08:52:16;24.77;;;6.73;;
74612;SDS011;63119;51.788;8.824;2023-12-20T08:54:41;19.77;;;6.45;;
74612;SDS011;63119;51.788;8.824;2023-12-20T08:57:06;12.87;;;5.90;;
74612;SDS011;63119;51.788;8.824;2023-12-20T08:59:32;14.83;;;6.07;;
74612;SDS011;63119;51.788;8.824;2023-12-20T09:01:57;20.52;;;7.03;;
74612;SDS011;63119;51.788;8.824;2023-12-20T09:04:25;21.20;;;7.63;;
74612;SDS011;63119;51.788;8.824;2023-12-20T09:06:50;17.50;;;6.23;;
74612;SDS011;63119;51.788;8.824;2023-12-20T09:09:16;14.67;;;6.03;;
74612;SDS011;63119;51.788;8.824;2023-12-20T09:11:41;15.27;;;6.22;;
74612;SDS011;63119;51.788;8.824;2023-12-20T09:14:07;18.55;;;6.47;;
74612;SDS011;63119;51.788;8.824;2023-12-20T09:16:32;15.75;;;6.18;;
74612;SDS011;63119;51.788;8.824;2023-12-20T09:18:57;13.17;;;5.97;;
74612;SDS011;63119;51.788;8.824;2023-12-20T09:21:23;21.70;;;6.43;;
74612;SDS011;63119;51.788;8.824;2023-12-20T09:23:48;16.45;;;6.90;;
74612;SDS011;63119;51.788;8.824;2023-12-20T09:26:14;24.50;;;7.72;;
74612;SDS011;63119;51.788;8.824;2023-12-20T09:28:39;16.90;;;6.23;;
74612;SDS011;63119;51.788;8.824;2023-12-20T09:31:05;18.25;;;6.30;;
74612;SDS011;63119;51.788;8.824;2023-12-20T09:33:31;8.93;;;5.38;;
74612;SDS011;63119;51.788;8.824;2023-12-20T09:35:56;18.80;;;6.18;;
74612;SDS011;63119;51.788;8.824;2023-12-20T09:38:22;17.00;;;5.90;;
74612;SDS011;63119;51.788;8.824;2023-12-20T09:40:47;15.82;;;6.97;;
74612;SDS011;63119;51.788;8.824;2023-12-20T09:43:18;17.50;;;8.25;;
74612;SDS011;63119;51.788;8.824;2023-12-20T09:45:45;26.65;;;9.43;;
74612;SDS011;63119;51.788;8.824;2023-12-20T09:48:11;23.60;;;10.20;;
74612;SDS011;63119;51.788;8.824;2023-12-20T09:50:39;17.67;;;6.95;;
74612;SDS011;63119;51.788;8.824;2023-12-20T09:53:05;15.20;;;5.70;;
74612;SDS011;63119;51.788;8.824;2023-12-20T09:55:34;15.40;;;6.68;;
74612;SDS011;63119;51.788;8.824;2023-12-20T09:58:00;22.45;;;7.00;;
74612;SDS011;63119;51.788;8.824;2023-12-20T10:00:26;13.60;;;6.00;;
74612;SDS011;63119;51.788;8.824;2023-12-20T10:02:57;16.17;;;6.23;;
74612;SDS011;63119;51.788;8.824;2023-12-20T10:05:31;18.10;;;7.38;;
74612;SDS011;63119;51.788;8.824;2023-12-20T10:07:57;16.33;;;7.40;;
74612;SDS011;63119;51.788;8.824;2023-12-20T10:10:23;21.48;;;7.35;;
74612;SDS011;63119;51.788;8.824;2023-12-20T10:13:02;18.58;;;8.20;;
74612;SDS011;63119;51.788;8.824;2023-12-20T10:15:34;16.08;;;9.07;;
74612;SDS011;63119;51.788;8.824;2023-12-20T10:18:01;19.52;;;8.30;;
74612;SDS011;63119;51.788;8.824;2023-12-20T10:20:27;22.50;;;8.77;;
74612;SDS011;63119;51.788;8.824;2023-12-20T10:22:54;17.05;;;7.28;;
74612;SDS011;63119;51.788;8.824;2023-12-20T10:25:20;16.52;;;6.00;;
74612;SDS011;63119;51.788;8.824;2023-12-20T10:27:46;15.50;;;7.00;;
74612;SDS011;63119;51.788;8.824;2023-12-20T10:30:11;15.77;;;6.90;;
74612;SDS011;63119;51.788;8.824;2023-12-20T10:32:36;14.93;;;6.05;;
74612;SDS011;63119;51.788;8.824;2023-12-20T10:35:02;14.53;;;6.33;;
74612;SDS011;63119;51.788;8.824;2023-12-20T10:37:27;15.30;;;6.47;;
74612;SDS011;63119;51.788;8.824;2023-12-20T10:39:53;15.17;;;6.13;;
74612;SDS011;63119;51.788;8.824;2023-12-20T10:42:22;18.33;;;6.90;;
74612;SDS011;63119;51.788;8.824;2023-12-20T10:44:52;15.68;;;6.28;;
74612;SDS011;63119;51.788;8.824;2023-12-20T10:47:18;23.95;;;6.70;;
74612;SDS011;63119;51.788;8.824;2023-12-20T10:49:44;18.13;;;6.20;;
74612;SDS011;63119;51.788;8.824;2023-12-20T10:52:11;11.65;;;5.95;;
74612;SDS011;63119;51.788;8.824;2023-12-20T10:54:36;15.70;;;6.82;;
74612;SDS011;63119;51.788;8.824;2023-12-20T10:57:03;20.88;;;6.57;;
74612;SDS011;63119;51.788;8.824;2023-12-20T10:59:31;18.65;;;6.40;;
74612;SDS011;63119;51.788;8.824;2023-12-20T11:01:58;15.57;;;6.40;;
74612;SDS011;63119;51.788;8.824;2023-12-20T11:04:25;10.95;;;5.82;;
74612;SDS011;63119;51.788;8.824;2023-12-20T11:07:00;16.58;;;5.82;;
74612;SDS011;63119;51.788;8.824;2023-12-20T11:09:36;19.52;;;6.43;;
74612;SDS011;63119;51.788;8.824;2023-12-20T11:12:18;17.55;;;6.28;;
74612;SDS011;63119;51.788;8.824;2023-12-20T11:14:51;17.65;;;6.25;;
74612;SDS011;63119;51.788;8.824;2023-12-20T11:17:20;18.80;;;6.10;;
74612;SDS011;63119;51.788;8.824;2023-12-20T11:22:17;19.00;;;6.55;;
74612;SDS011;63119;51.788;8.824;2023-12-20T11:24:44;21.25;;;6.30;;
74612;SDS011;63119;51.788;8.824;2023-12-20T11:27:10;13.00;;;6.35;;
74612;SDS011;63119;51.788;8.824;2023-12-20T11:29:35;14.17;;;6.57;;
74612;SDS011;63119;51.788;8.824;2023-12-20T11:32:03;19.00;;;7.03;;
74612;SDS011;63119;51.788;8.824;2023-12-20T11:34:32;21.30;;;6.97;;
74612;SDS011;63119;51.788;8.824;2023-12-20T11:36:59;15.15;;;6.65;;
74612;SDS011;63119;51.788;8.824;2023-12-20T11:39:25;16.98;;;7.25;;
74612;SDS011;63119;51.788;8.824;2023-12-20T11:41:54;22.05;;;6.38;;
74612;SDS011;63119;51.788;8.824;2023-12-20T11:44:21;19.75;;;6.78;;
74612;SDS011;63119;51.788;8.824;2023-12-20T11:46:46;17.70;;;6.53;;
74612;SDS011;63119;51.788;8.824;2023-12-20T11:49:12;13.18;;;6.50;;
74612;SDS011;63119;51.788;8.824;2023-12-20T11:51:40;16.53;;;6.60;;
74612;SDS011;63119;51.788;8.824;2023-12-20T11:54:06;16.17;;;6.60;;
74612;SDS011;63119;51.788;8.824;2023-12-20T11:56:31;19.07;;;7.77;;
74612;SDS011;63119;51.788;8.824;2023-12-20T11:58:57;28.33;;;11.13;;
74612;SDS011;63119;51.788;8.824;2023-12-20T12:01:22;23.93;;;9.53;;
74612;SDS011;63119;51.788;8.824;2023-12-20T12:03:47;25.37;;;10.27;;
74612;SDS011;63119;51.788;8.824;2023-12-20T12:06:12;23.10;;;7.93;;
74612;SDS011;63119;51.788;8.824;2023-12-20T12:08:38;29.20;;;10.25;;
74612;SDS011;63119;51.788;8.824;2023-12-20T12:11:04;27.42;;;9.93;;
74612;SDS011;63119;51.788;8.824;2023-12-20T12:13:29;24.87;;;9.27;;
74612;SDS011;63119;51.788;8.824;2023-12-20T12:15:54;25.40;;;9.77;;
74612;SDS011;63119;51.788;8.824;2023-12-20T12:18:20;23.80;;;9.93;;
74612;SDS011;63119;51.788;8.824;2023-12-20T12:20:45;24.23;;;9.87;;
74612;SDS011;63119;51.788;8.824;2023-12-20T12:23:10;22.38;;;8.55;;
74612;SDS011;63119;51.788;8.824;2023-12-20T12:25:36;19.87;;;10.13;;
74612;SDS011;63119;51.788;8.824;2023-12-20T12:28:04;34.85;;;13.95;;
74612;SDS011;63119;51.788;8.824;2023-12-20T12:30:30;22.83;;;9.00;;
74612;SDS011;63119;51.788;8.824;2023-12-20T12:32:55;20.63;;;9.10;;
74612;SDS011;63119;51.788;8.824;2023-12-20T12:35:21;14.55;;;7.13;;
74612;SDS011;63119;51.788;8.824;2023-12-20T12:37:46;19.40;;;7.97;;
74612;SDS011;63119;51.788;8.824;2023-12-20T12:40:12;19.50;;;8.57;;
74612;SDS011;63119;51.788;8.824;2023-12-20T12:42:39;23.08;;;10.07;;
74612;SDS011;63119;51.788;8.824;2023-12-20T12:45:05;20.00;;;7.10;;
74612;SDS011;63119;51.788;8.824;2023-12-20T12:47:31;18.33;;;7.93;;
74612;SDS011;63119;51.788;8.824;2023-12-20T12:49:57;16.67;;;8.32;;
74612;SDS011;63119;51.788;8.824;2023-12-20T12:52:22;13.77;;;6.50;;
74612;SDS011;63119;51.788;8.824;2023-12-20T12:54:48;12.07;;;6.47;;
74612;SDS011;63119;51.788;8.824;2023-12-20T12:57:14;10.88;;;5.75;;
74612;SDS011;63119;51.788;8.824;2023-12-20T12:59:40;13.02;;;5.97;;
74612;SDS011;63119;51.788;8.824;2023-12-20T13:02:06;17.02;;;5.72;;
74612;SDS011;63119;51.788;8.824;2023-12-20T13:04:31;13.67;;;6.73;;
74612;SDS011;63119;51.788;8.824;2023-12-20T13:06:56;11.20;;;5.60;;
74612;SDS011;63119;51.788;8.824;2023-12-20T13:09:22;12.18;;;6.10;;
74612;SDS011;63119;51.788;8.824;2023-12-20T13:11:48;9.88;;;5.22;;
74612;SDS011;63119;51.788;8.824;2023-12-20T13:14:13;16.10;;;5.80;;
74612;SDS011;63119;51.788;8.824;2023-12-20T13:16:40;14.57;;;5.72;;
74612;SDS011;63119;51.788;8.824;2023-12-20T13:19:06;10.35;;;5.47;;
74612;SDS011;63119;51.788;8.824;2023-12-20T13:21:31;11.33;;;4.43;;
74612;SDS011;63119;51.788;8.824;2023-12-20T13:23:57;12.73;;;6.53;;
74612;SDS011;63119;51.788;8.824;2023-12-20T13:26:22;13.30;;;5.50;;
74612;SDS011;63119;51.788;8.824;2023-12-20T13:28:47;19.23;;;5.60;;
74612;SDS011;63119;51.788;8.824;2023-12-20T13:31:12;12.80;;;5.50;;
74612;SDS011;63119;51.788;8.824;2023-12-20T13:33:38;15.53;;;5.57;;
74612;SDS011;63119;51.788;8.824;2023-12-20T13:36:04;10.77;;;5.28;;
74612;SDS011;63119;51.788;8.824;2023-12-20T13:38:30;10.90;;;4.55;;
74612;SDS011;63119;51.788;8.824;2023-12-20T13:40:56;17.55;;;5.32;;
74612;SDS011;63119;51.788;8.824;2023-12-20T13:43:23;11.73;;;5.32;;
74612;SDS011;63119;51.788;8.824;2023-12-20T13:45:49;10.48;;;4.20;;
74612;SDS011;63119;51.788;8.824;2023-12-20T13:48:14;11.27;;;3.63;;
74612;SDS011;63119;51.788;8.824;2023-12-20T13:50:39;8.77;;;3.90;;
74612;SDS011;63119;51.788;8.824;2023-12-20T13:53:05;13.33;;;3.67;;
74612;SDS011;63119;51.788;8.824;2023-12-20T13:55:30;14.43;;;3.57;;
74612;SDS011;63119;51.788;8.824;2023-12-20T13:57:56;10.73;;;4.37;;
74612;SDS011;63119;51.788;8.824;2023-12-20T14:00:21;9.75;;;4.70;;
74612;SDS011;63119;51.788;8.824;2023-12-20T14:02:47;9.32;;;4.50;;
74612;SDS011;63119;51.788;8.824;2023-12-20T14:05:13;8.20;;;4.45;;
74612;SDS011;63119;51.788;8.824;2023-12-20T14:07:41;11.35;;;5.13;;
74612;SDS011;63119;51.788;8.824;2023-12-20T14:10:09;10.18;;;5.13;;
74612;SDS011;63119;51.788;8.824;2023-12-20T14:12:35;11.40;;;5.35;;
74612;SDS011;63119;51.788;8.824;2023-12-20T14:15:01;13.77;;;5.10;;
74612;SDS011;63119;51.788;8.824;2023-12-20T14:17:27;8.23;;;5.00;;
74612;SDS011;63119;51.788;8.824;2023-12-20T14:19:52;13.37;;;5.43;;
74612;SDS011;63119;51.788;8.824;2023-12-20T14:22:19;4.07;;;1.90;;
74612;SDS011;63119;51.788;8.824;2023-12-20T14:24:44;3.13;;;0.87;;
74612;SDS011;63119;51.788;8.824;2023-12-20T14:27:10;2.90;;;0.80;;
74612;SDS011;63119;51.788;8.824;2023-12-20T14:29:36;2.42;;;1.40;;
74612;SDS011;63119;51.788;8.824;2023-12-20T14:32:02;0.95;;;0.65;;
74612;SDS011;63119;51.788;8.824;2023-12-20T14:34:28;4.55;;;1.10;;
74612;SDS011;63119;51.788;8.824;2023-12-20T14:36:54;3.33;;;0.90;;